createdAt,value
2018-02-10T00:02:14.212Z,56.70
2018-02-10T00:04:43.203Z,67.67
2018-02-10T00:07:12.184Z,71.67
2018-02-10T00:09:41.183Z,62.43
2018-02-10T00:12:10.906Z,63.17
2018-02-10T00:14:40.641Z,66.83
2018-02-10T00:17:09.647Z,65.90
2018-02-10T00:19:38.631Z,69.20
2018-02-10T00:22:07.593Z,66.47
2018-02-10T00:24:36.544Z,54.30
2018-02-10T00:27:05.603Z,66.53
2018-02-10T00:29:34.628Z,69.27
2018-02-10T00:32:03.922Z,60.87
2018-02-10T00:34:33.277Z,60.40
2018-02-10T00:37:02.297Z,62.53
2018-02-10T00:39:31.443Z,68.60
2018-02-10T00:42:00.380Z,58.80
2018-02-10T00:44:29.389Z,69.60
2018-02-10T00:46:59.134Z,58.80
2018-02-10T00:49:28.861Z,53.43
2018-02-10T00:51:58.240Z,67.57
2018-02-10T00:54:27.979Z,71.97
2018-02-10T00:56:56.969Z,66.67
2018-02-10T00:59:25.919Z,60.50
2018-02-10T01:01:54.880Z,57.50
2018-02-10T01:04:23.886Z,72.77
2018-02-10T01:06:52.863Z,62.37
2018-02-10T01:09:22.006Z,64.17
2018-02-10T01:11:51.723Z,62.37
2018-02-10T01:14:21.477Z,55.33
2018-02-10T01:16:50.459Z,61.50
2018-02-10T01:19:19.443Z,56.60
2018-02-10T01:21:48.415Z,68.37
2018-02-10T01:24:18.169Z,59.73
2018-02-10T01:26:47.573Z,60.37
2018-02-10T01:29:16.561Z,77.03
2018-02-10T01:31:45.564Z,62.27
2018-02-10T01:34:14.965Z,73.83
2018-02-10T01:36:43.935Z,59.77
2018-02-10T01:39:12.906Z,67.93
2018-02-10T01:41:41.915Z,58.73
2018-02-10T01:44:11.287Z,68.93
2018-02-10T01:46:41.058Z,67.03
2018-02-10T01:49:10.034Z,66.27
2018-02-10T01:51:39.201Z,68.70
2018-02-10T01:54:08.172Z,59.70
2018-02-10T01:56:37.662Z,58.53
2018-02-10T01:59:08.200Z,65.53
2018-02-10T02:01:37.601Z,67.33
2018-02-10T02:04:06.593Z,61.07
2018-02-10T02:06:35.625Z,67.03
2018-02-10T02:09:04.602Z,59.03
2018-02-10T02:11:33.816Z,60.93
2018-02-10T02:14:02.809Z,61.53
2018-02-10T02:16:31.770Z,71.97
2018-02-10T02:19:01.549Z,69.87
2018-02-10T02:21:30.963Z,63.57
2018-02-10T02:23:59.942Z,64.87
2018-02-10T02:26:29.708Z,68.00
2018-02-10T02:28:58.694Z,66.37
2018-02-10T02:31:28.244Z,66.53
2018-02-10T02:33:57.317Z,66.77
2018-02-10T02:36:27.041Z,69.30
2018-02-10T02:38:56.478Z,76.30
2018-02-10T02:41:25.500Z,56.90
2018-02-10T02:43:54.443Z,75.13
2018-02-10T02:46:23.846Z,70.00
2018-02-10T02:48:53.604Z,66.83
2018-02-10T02:51:23.360Z,71.50
2018-02-10T02:53:52.361Z,71.53
2018-02-10T02:56:22.827Z,69.33
2018-02-10T02:58:51.797Z,64.53
2018-02-10T03:01:21.528Z,61.70
2018-02-10T03:03:50.540Z,67.93
2018-02-10T03:06:19.587Z,61.13
2018-02-10T03:08:48.548Z,62.83
2018-02-10T03:11:18.304Z,66.07
2018-02-10T03:13:48.063Z,68.73
2018-02-10T03:16:17.183Z,63.83
2018-02-10T03:18:46.161Z,61.47
2018-02-10T03:21:15.171Z,68.37
2018-02-10T03:23:45.894Z,60.20
2018-02-10T03:26:14.852Z,60.77
2018-02-10T03:28:43.849Z,71.03
2018-02-10T03:31:12.846Z,60.53
2018-02-10T03:33:41.941Z,64.60
2018-02-10T03:36:10.911Z,62.53
2018-02-10T03:38:39.900Z,63.37
2018-02-10T03:41:08.935Z,73.70
2018-02-10T03:43:38.004Z,67.00
2018-02-10T03:46:07.008Z,52.03
2018-02-10T03:48:36.001Z,72.93
2018-02-10T03:51:04.987Z,58.27
2018-02-10T03:53:33.966Z,67.93
2018-02-10T03:56:02.943Z,61.00
2018-02-10T03:58:32.340Z,63.10
2018-02-10T04:01:02.076Z,69.37
2018-02-10T04:03:31.072Z,69.37
2018-02-10T04:06:00.091Z,70.87
2018-02-10T04:08:29.461Z,60.50
2018-02-10T04:10:58.418Z,75.07
2018-02-10T04:13:27.796Z,58.53
2018-02-10T04:15:57.000Z,59.40
2018-02-10T04:18:27.512Z,62.00
2018-02-10T04:20:56.488Z,68.87
2018-02-10T04:23:25.459Z,68.93
2018-02-10T04:25:54.471Z,62.10
2018-02-10T04:28:23.507Z,62.53
2018-02-10T04:30:54.021Z,61.30
2018-02-10T04:33:22.992Z,53.77
2018-02-10T04:35:51.985Z,66.00
2018-02-10T04:38:20.977Z,68.53
2018-02-10T04:40:49.969Z,58.80
2018-02-10T04:43:18.973Z,59.03
2018-02-10T04:45:47.949Z,62.03
2018-02-10T04:48:16.923Z,57.97
2018-02-10T04:50:45.933Z,66.90
2018-02-10T04:53:15.219Z,61.00
2018-02-10T04:55:44.189Z,61.40
2018-02-10T04:58:13.925Z,67.33
2018-02-10T05:00:42.922Z,60.67
2018-02-10T05:03:12.032Z,63.97
2018-02-10T05:05:41.029Z,67.77
2018-02-10T05:08:10.390Z,59.73
2018-02-10T05:10:39.400Z,50.67
2018-02-10T05:13:08.393Z,57.57
2018-02-10T05:15:37.786Z,55.43
2018-02-10T05:18:06.788Z,56.03
2018-02-10T05:20:35.792Z,55.10
2018-02-10T05:23:05.150Z,56.47
2018-02-10T05:25:34.522Z,57.33
2018-02-10T05:28:03.511Z,65.77
2018-02-10T05:30:33.988Z,65.53
2018-02-10T05:33:03.168Z,69.23
2018-02-10T05:35:34.425Z,57.67
2018-02-10T05:38:04.189Z,55.13
2018-02-10T05:40:33.948Z,59.60
2018-02-10T05:43:02.916Z,56.63
2018-02-10T05:45:32.344Z,57.17
2018-02-10T05:48:01.349Z,62.03
2018-02-10T05:50:31.098Z,68.10
2018-02-10T05:53:00.085Z,56.37
2018-02-10T05:55:29.096Z,59.23
2018-02-10T05:57:58.818Z,63.33
2018-02-10T06:00:27.992Z,66.87
2018-02-10T06:02:57.720Z,63.40
2018-02-10T06:05:26.741Z,58.97
2018-02-10T06:07:56.518Z,62.27
2018-02-10T06:10:25.545Z,61.37
2018-02-10T06:12:54.508Z,61.73
2018-02-10T06:15:23.507Z,63.33
2018-02-10T06:17:53.342Z,60.67
2018-02-10T06:20:22.362Z,67.97
2018-02-10T06:22:51.344Z,61.43
2018-02-10T06:25:20.344Z,60.17
2018-02-10T06:27:49.325Z,63.00
2018-02-10T06:30:18.427Z,64.10
2018-02-10T06:32:47.897Z,65.60
2018-02-10T06:35:17.698Z,63.23
2018-02-10T06:37:46.699Z,54.70
2018-02-10T06:40:16.523Z,62.23
2018-02-10T06:42:46.221Z,64.60
2018-02-10T06:45:15.169Z,61.03
2018-02-10T06:47:44.566Z,63.77
2018-02-10T06:50:14.420Z,71.13
2018-02-10T06:52:43.828Z,54.87
2018-02-10T06:55:13.569Z,61.77
2018-02-10T06:57:42.578Z,67.00
2018-02-10T07:00:11.631Z,63.77
2018-02-10T07:02:40.570Z,65.50
2018-02-10T07:05:09.668Z,70.40
2018-02-10T07:07:38.711Z,80.22
2018-02-10T07:10:10.303Z,75.65
2018-02-10T07:12:41.994Z,68.97
2018-02-10T07:15:13.149Z,64.20
2018-02-10T07:17:43.785Z,61.40
2018-02-10T07:20:13.463Z,69.83
2018-02-10T07:22:42.448Z,54.80
2018-02-10T07:25:11.620Z,72.03
2018-02-10T07:27:40.568Z,69.57
2018-02-10T07:30:10.410Z,61.33
2018-02-10T07:32:41.248Z,63.57
2018-02-10T07:35:10.514Z,64.20
2018-02-10T07:37:39.530Z,59.43
2018-02-10T07:40:08.625Z,57.37
2018-02-10T07:42:37.754Z,54.33
2018-02-10T07:45:07.184Z,59.13
2018-02-10T07:47:36.148Z,62.57
2018-02-10T07:50:05.356Z,63.00
2018-02-10T07:52:34.737Z,54.07
2018-02-10T07:55:05.466Z,62.77
2018-02-10T07:57:35.412Z,61.13
2018-02-10T08:00:04.476Z,57.13
2018-02-10T08:02:33.981Z,65.30
2018-02-10T08:05:07.054Z,57.87
2018-02-10T08:07:36.043Z,57.60
2018-02-10T08:10:05.089Z,65.83
2018-02-10T08:12:34.118Z,69.80
2018-02-10T08:15:03.887Z,56.60
2018-02-10T08:17:33.676Z,55.73
2018-02-10T08:20:02.731Z,53.83
2018-02-10T08:22:32.511Z,62.60
2018-02-10T08:25:03.169Z,56.93
2018-02-10T08:27:32.793Z,57.40
2018-02-10T08:30:01.845Z,55.57
2018-02-10T08:32:30.845Z,71.50
2018-02-10T08:34:59.832Z,61.73
2018-02-10T08:37:28.891Z,64.93
2018-02-10T08:39:57.885Z,54.77
2018-02-10T08:42:26.908Z,71.20
2018-02-10T08:44:56.325Z,57.80
2018-02-10T08:47:25.312Z,59.10
2018-02-10T08:49:55.792Z,60.40
2018-02-10T08:52:24.801Z,60.77
2018-02-10T08:54:54.534Z,64.30
2018-02-10T08:57:25.054Z,59.60
2018-02-10T08:59:54.392Z,62.87
2018-02-10T09:02:24.477Z,59.70
2018-02-10T09:04:53.956Z,58.03
2018-02-10T09:07:23.339Z,57.13
2018-02-10T09:09:52.327Z,51.97
2018-02-10T09:12:22.998Z,59.10
2018-02-10T09:14:52.070Z,56.40
2018-02-10T09:17:21.231Z,51.50
2018-02-10T09:19:50.982Z,54.27
2018-02-10T09:22:21.147Z,59.33
2018-02-10T09:24:50.101Z,52.10
2018-02-10T09:27:19.071Z,62.13
2018-02-10T09:29:48.833Z,53.20
2018-02-10T09:32:17.801Z,53.80
2018-02-10T09:34:47.569Z,60.03
2018-02-10T09:37:17.475Z,57.57
2018-02-10T09:39:46.464Z,53.03
2018-02-10T09:42:15.527Z,50.40
2018-02-10T09:44:46.585Z,56.50
2018-02-10T09:47:15.658Z,53.60
2018-02-10T09:49:44.690Z,49.20
2018-02-10T09:52:14.558Z,47.63
2018-02-10T09:54:44.517Z,49.47
2018-02-10T09:57:14.078Z,56.37
2018-02-10T09:59:44.700Z,47.20
2018-02-10T10:02:13.843Z,50.90
2018-02-10T10:04:44.281Z,51.63
2018-02-10T10:07:14.155Z,47.50
2018-02-10T10:09:43.198Z,46.87
2018-02-10T10:12:12.220Z,52.30
2018-02-10T10:14:41.275Z,56.40
2018-02-10T10:17:10.304Z,48.40
2018-02-10T10:19:40.089Z,42.87
2018-02-10T10:22:09.145Z,50.07
2018-02-10T10:24:38.261Z,49.57
2018-02-10T10:27:07.486Z,47.37
2018-02-10T10:29:36.975Z,56.67
2018-02-10T10:32:06.368Z,50.27
2018-02-10T10:34:36.148Z,43.90
2018-02-10T10:37:05.152Z,45.20
2018-02-10T10:39:34.170Z,48.93
2018-02-10T10:42:03.920Z,50.03
2018-02-10T10:44:33.822Z,50.80
2018-02-10T10:47:02.822Z,47.40
2018-02-10T10:49:32.011Z,48.03
2018-02-10T10:52:01.485Z,53.27
2018-02-10T10:54:30.483Z,45.50
2018-02-10T10:56:59.478Z,52.77
2018-02-10T10:59:29.288Z,51.70
2018-02-10T11:01:58.415Z,47.80
2018-02-10T11:04:27.378Z,47.53
2018-02-10T11:06:56.743Z,47.70
2018-02-10T11:09:26.144Z,47.87
2018-02-10T11:11:55.135Z,46.97
2018-02-10T11:14:24.129Z,44.27
2018-02-10T11:16:53.455Z,45.07
2018-02-10T11:19:22.497Z,48.40
2018-02-10T11:21:51.488Z,50.93
2018-02-10T11:24:20.500Z,47.83
2018-02-10T11:26:49.507Z,45.57
2018-02-10T11:29:18.906Z,56.83
2018-02-10T11:31:48.286Z,48.47
2018-02-10T11:34:17.280Z,53.67
2018-02-10T11:36:47.090Z,51.23
2018-02-10T11:39:16.142Z,49.67
2018-02-10T11:41:45.885Z,50.10
2018-02-10T11:44:15.333Z,46.47
2018-02-10T11:46:45.111Z,47.43
2018-02-10T11:49:14.374Z,63.00
2018-02-10T11:51:44.713Z,60.30
2018-02-10T11:54:13.770Z,54.13
2018-02-10T11:56:43.492Z,47.33
2018-02-10T11:59:12.536Z,57.60
2018-02-10T12:01:41.660Z,47.50
2018-02-10T12:04:27.851Z,48.77
2018-02-10T12:06:56.825Z,48.93
2018-02-10T12:09:26.257Z,53.97
2018-02-10T12:11:56.069Z,54.17
2018-02-10T12:14:25.016Z,42.60
2018-02-10T12:16:54.531Z,50.93
2018-02-10T12:19:24.143Z,53.40
2018-02-10T12:21:53.212Z,53.57
2018-02-10T12:24:22.440Z,53.67
2018-02-10T12:26:51.471Z,63.73
2018-02-10T12:29:20.432Z,127.50
2018-02-10T12:31:49.426Z,69.10
2018-02-10T12:34:18.433Z,59.77
2018-02-10T12:36:48.315Z,55.67
2018-02-10T12:39:17.360Z,57.47
2018-02-10T12:41:46.650Z,49.80
2018-02-10T12:44:16.480Z,47.37
2018-02-10T12:46:46.256Z,48.10
2018-02-10T12:49:21.585Z,48.87
2018-02-10T12:51:50.612Z,57.25
2018-02-10T12:54:20.016Z,48.30
2018-02-10T12:56:49.017Z,60.65
2018-02-10T12:59:17.986Z,49.43
2018-02-10T13:01:47.788Z,51.07
2018-02-10T13:04:18.294Z,62.27
2018-02-10T13:06:47.281Z,59.17
2018-02-10T13:09:16.681Z,49.47
2018-02-10T13:11:46.446Z,54.87
2018-02-10T13:14:16.224Z,59.97
2018-02-10T13:16:45.231Z,46.80
2018-02-10T13:19:14.362Z,54.00
2018-02-10T13:21:43.339Z,54.97
2018-02-10T13:24:12.850Z,51.60
2018-02-10T13:26:41.890Z,57.50
2018-02-10T13:29:10.876Z,56.63
2018-02-10T13:31:39.915Z,47.37
2018-02-10T13:34:09.329Z,56.58
2018-02-10T13:36:38.443Z,56.13
2018-02-10T13:39:07.448Z,65.85
2018-02-10T13:41:36.465Z,57.83
2018-02-10T13:44:05.607Z,57.57
2018-02-10T13:46:34.659Z,51.67
2018-02-10T13:49:03.653Z,57.03
2018-02-10T13:51:33.697Z,57.07
2018-02-10T13:54:02.685Z,56.33
2018-02-10T13:56:32.369Z,47.30
2018-02-10T13:59:02.160Z,52.60
2018-02-10T14:01:31.191Z,47.57
2018-02-10T14:04:01.554Z,57.47
2018-02-10T14:06:30.598Z,57.50
2018-02-10T14:09:00.409Z,51.90
2018-02-10T14:11:29.474Z,59.13
2018-02-10T14:13:58.444Z,53.93
2018-02-10T14:16:27.505Z,54.07
2018-02-10T14:18:56.900Z,64.50
2018-02-10T14:21:25.863Z,55.07
2018-02-10T14:23:56.432Z,68.23
2018-02-10T14:26:25.371Z,54.20
2018-02-10T14:28:54.382Z,50.60
2018-02-10T14:31:24.938Z,53.97
2018-02-10T14:33:54.329Z,51.63
2018-02-10T14:36:23.289Z,42.70
2018-02-10T14:38:52.296Z,46.70
2018-02-10T14:41:21.345Z,43.03
2018-02-10T14:43:50.451Z,42.30
2018-02-10T14:46:19.892Z,46.00
2018-02-10T14:48:49.684Z,96.07
2018-02-10T14:51:19.534Z,58.13
2018-02-10T14:53:48.520Z,59.60
2018-02-10T14:56:18.321Z,46.27
2018-02-10T14:58:47.304Z,37.40
2018-02-10T15:01:16.289Z,50.13
2018-02-10T15:03:45.284Z,52.30
2018-02-10T15:06:14.680Z,45.13
2018-02-10T15:09:03.427Z,47.57
2018-02-10T15:11:32.486Z,47.00
2018-02-10T15:14:01.777Z,48.07
2018-02-10T15:16:30.797Z,58.70
2018-02-10T15:18:59.812Z,62.10
2018-02-10T15:21:29.721Z,50.57
2018-02-10T15:23:59.491Z,54.93
2018-02-10T15:26:29.276Z,48.50
2018-02-10T15:28:58.295Z,51.63
2018-02-10T15:31:38.952Z,55.53
2018-02-10T15:47:48.591Z,37.10
2018-02-10T15:50:17.986Z,45.57
2018-02-10T15:52:48.507Z,46.43
2018-02-10T15:55:22.227Z,43.03
2018-02-10T15:57:52.448Z,52.87
2018-02-10T16:00:36.718Z,48.90
2018-02-10T16:03:05.739Z,44.63
2018-02-10T16:05:35.604Z,37.50
2018-02-10T16:08:07.881Z,43.70
2018-02-10T16:10:37.654Z,46.90
2018-02-10T16:13:08.159Z,45.67
2018-02-10T16:15:38.810Z,45.40
2018-02-10T16:18:08.745Z,40.93
2018-02-10T16:20:38.534Z,52.47
2018-02-10T16:23:07.761Z,42.40
2018-02-10T16:25:36.777Z,43.13
2018-02-10T16:28:05.873Z,43.43
2018-02-10T16:30:38.120Z,46.90
2018-02-10T16:33:08.085Z,50.17
2018-02-10T16:35:37.046Z,45.33
2018-02-10T16:38:06.006Z,47.87
2018-02-10T16:40:35.386Z,43.03
2018-02-10T16:43:04.344Z,48.07
2018-02-10T16:45:34.046Z,45.23
2018-02-10T16:48:03.011Z,44.27
2018-02-10T16:50:32.741Z,42.57
2018-02-10T16:53:02.392Z,52.07
2018-02-10T16:55:31.789Z,47.67
2018-02-10T16:58:00.805Z,45.17
2018-02-10T17:00:30.014Z,45.00
2018-02-10T17:02:59.736Z,34.33
2018-02-10T17:05:29.135Z,40.90
2018-02-10T17:07:58.848Z,43.27
2018-02-10T17:10:28.579Z,44.50
2018-02-10T17:12:58.710Z,55.37
2018-02-10T17:15:27.677Z,45.47
2018-02-10T17:17:56.635Z,50.80
2018-02-10T17:20:25.672Z,64.43
2018-02-10T17:22:55.402Z,62.30
2018-02-10T17:25:24.442Z,45.80
2018-02-10T17:27:54.320Z,57.03
2018-02-10T17:30:24.413Z,48.93
2018-02-10T17:32:53.433Z,48.87
2018-02-10T17:35:22.397Z,52.50
2018-02-10T17:37:51.438Z,50.73
2018-02-10T17:40:21.983Z,48.93
2018-02-10T17:42:50.925Z,56.20
2018-02-10T17:45:20.347Z,60.30
2018-02-10T17:47:49.981Z,61.97
2018-02-10T17:50:19.001Z,52.93
2018-02-10T17:52:49.288Z,55.00
2018-02-10T17:55:18.545Z,49.80
2018-02-10T17:57:47.480Z,43.10
2018-02-10T18:00:16.503Z,54.30
2018-02-10T18:02:45.935Z,46.43
2018-02-10T18:05:14.983Z,56.20
2018-02-10T18:07:44.787Z,51.80
2018-02-10T18:10:13.835Z,45.50
2018-02-10T18:12:42.802Z,46.17
2018-02-10T18:15:11.782Z,49.63
2018-02-10T18:17:41.179Z,54.33
2018-02-10T18:20:10.570Z,51.33
2018-02-10T18:22:40.433Z,53.60
2018-02-10T18:25:09.407Z,50.17
2018-02-10T18:27:38.450Z,48.23
2018-02-10T18:30:08.271Z,50.50
2018-02-10T18:32:37.234Z,71.83
2018-02-10T18:35:06.287Z,54.60
2018-02-10T18:37:35.275Z,57.27
2018-02-10T18:40:04.795Z,49.60
2018-02-10T18:42:36.157Z,54.43
2018-02-10T18:45:05.942Z,75.97
2018-02-10T18:47:35.725Z,62.13
2018-02-10T18:50:04.723Z,78.07
2018-02-10T18:52:33.730Z,61.13
2018-02-10T18:55:03.476Z,60.17
2018-02-10T18:57:32.474Z,53.13
2018-02-10T19:00:01.469Z,53.60
2018-02-10T19:02:30.531Z,62.00
2018-02-10T19:05:00.323Z,49.83
2018-02-10T19:07:29.340Z,56.13
2018-02-10T19:09:58.295Z,76.20
2018-02-10T19:12:27.349Z,54.07
2018-02-10T19:14:56.806Z,66.40
2018-02-10T19:17:25.837Z,54.57
2018-02-10T19:19:55.260Z,41.73
2018-02-10T19:22:24.777Z,53.20
2018-02-10T19:24:53.744Z,53.90
2018-02-10T19:27:22.772Z,51.50
2018-02-10T19:29:52.580Z,91.23
2018-02-10T19:32:23.089Z,67.20
2018-02-10T19:34:52.504Z,81.47
2018-02-10T19:37:21.916Z,66.23
2018-02-10T19:39:50.961Z,57.70
2018-02-10T19:42:19.974Z,64.67
2018-02-10T19:44:49.165Z,60.47
2018-02-10T19:47:18.171Z,58.77
2018-02-10T19:49:47.717Z,67.50
2018-02-10T19:52:16.698Z,68.50
2018-02-10T19:54:45.700Z,67.23
2018-02-10T19:57:14.722Z,51.43
2018-02-10T19:59:43.700Z,59.47
2018-02-10T20:02:13.480Z,63.67
2018-02-10T20:04:42.491Z,62.50
2018-02-10T20:07:11.765Z,64.17
2018-02-10T20:09:41.561Z,64.20
2018-02-10T20:12:10.598Z,80.00
2018-02-10T20:14:39.944Z,69.27
2018-02-10T20:17:09.050Z,62.90
2018-02-10T20:19:39.379Z,65.50
2018-02-10T20:22:08.960Z,64.67
2018-02-10T20:24:39.851Z,105.70
2018-02-10T20:27:09.658Z,66.67
2018-02-10T20:29:38.837Z,66.23
2018-02-10T20:32:07.827Z,48.90
2018-02-10T20:34:37.573Z,58.27
2018-02-10T20:37:06.983Z,56.30
2018-02-10T20:39:36.745Z,58.70
2018-02-10T20:42:06.672Z,60.73
2018-02-10T20:44:35.698Z,52.33
2018-02-10T20:47:05.748Z,55.53
2018-02-10T20:49:34.780Z,46.87
2018-02-10T20:52:03.771Z,49.60
2018-02-10T20:54:33.538Z,54.33
2018-02-10T20:57:02.596Z,44.13
2018-02-10T20:59:31.615Z,45.33
2018-02-10T21:02:00.638Z,47.30
2018-02-10T21:04:29.618Z,48.30
2018-02-10T21:06:58.653Z,44.27
2018-02-10T21:09:27.651Z,53.23
2018-02-10T21:11:56.662Z,46.77
2018-02-10T21:14:25.712Z,46.63
2018-02-10T21:16:55.151Z,56.53
2018-02-10T21:19:24.122Z,48.50
2018-02-10T21:21:54.040Z,49.47
2018-02-10T21:24:23.067Z,49.13
2018-02-10T21:26:52.843Z,54.07
2018-02-10T21:29:22.650Z,52.90
2018-02-10T21:31:52.437Z,50.57
2018-02-10T21:36:56.992Z,55.63
2018-02-10T21:39:26.387Z,50.70
2018-02-10T21:41:56.319Z,42.93
2018-02-10T21:44:25.716Z,45.07
2018-02-10T21:46:54.773Z,53.17
2018-02-10T21:49:24.036Z,55.20
2018-02-10T21:51:53.946Z,54.20
2018-02-10T21:54:22.940Z,49.93
2018-02-10T21:56:52.696Z,51.40
2018-02-10T21:59:21.951Z,59.53
2018-02-10T22:01:50.943Z,64.43
2018-02-10T22:04:20.676Z,48.60
2018-02-10T22:06:49.678Z,54.97
2018-02-10T22:09:18.886Z,59.87
2018-02-10T22:11:49.026Z,55.87
2018-02-10T22:14:18.097Z,47.30
2018-02-10T22:16:47.085Z,56.50
2018-02-10T22:19:16.886Z,52.10
2018-02-10T22:21:45.864Z,68.80
2018-02-10T22:24:14.886Z,50.27
2018-02-10T22:26:43.861Z,56.93
2018-02-10T22:29:12.867Z,50.53
2018-02-10T22:31:41.868Z,63.30
2018-02-10T22:34:12.043Z,50.13
2018-02-10T22:36:41.453Z,54.47
2018-02-10T22:39:11.233Z,59.63
2018-02-10T22:41:41.195Z,50.13
2018-02-10T22:44:10.157Z,56.50
2018-02-10T22:46:39.461Z,52.53
2018-02-10T22:49:09.241Z,57.17
2018-02-10T22:51:38.322Z,50.50
2018-02-10T22:54:07.282Z,62.53
2018-02-10T22:56:36.280Z,53.27
2018-02-10T22:59:05.672Z,41.73
2018-02-10T23:01:34.720Z,45.67
2018-02-10T23:04:03.670Z,44.87
2018-02-10T23:06:32.677Z,46.70
2018-02-10T23:09:02.031Z,42.33
2018-02-10T23:11:31.026Z,45.77
2018-02-10T23:14:00.766Z,38.13
2018-02-10T23:16:29.727Z,46.13
2018-02-10T23:18:58.739Z,42.20
2018-02-10T23:21:27.732Z,38.80
2018-02-10T23:23:56.900Z,38.97
2018-02-10T23:26:25.869Z,37.63
2018-02-10T23:28:54.913Z,37.77
2018-02-10T23:31:24.705Z,34.93
2018-02-10T23:33:54.132Z,31.23
2018-02-10T23:36:23.107Z,34.07
2018-02-10T23:38:52.831Z,28.30
2018-02-10T23:41:21.853Z,33.23
2018-02-10T23:43:50.844Z,31.57
2018-02-10T23:46:19.884Z,28.10
2018-02-10T23:48:49.339Z,28.57
2018-02-10T23:51:19.426Z,26.33
2018-02-10T23:53:48.510Z,27.57
2018-02-10T23:56:17.541Z,24.80
2018-02-10T23:58:47.391Z,25.73
